PDA7UM CYYC-UKBB
Flight info
| Callsign | PDA7UM |
|---|---|
| Flight time | N/A |
| Altitude | 36000 |
| Route | BIRKO Q882 CACHO/N0486F370 Q856 YMM DCT 59N109W 61N107W 63N105W 67N097W 69N091W 71N085W/N0487F390 73N077W/M084F390 75N059W 75N037W 73N019W 71N011W 69N005W/N0499F390 67N001E DCT TEDVU/N0498F410 DCT ABMAT DCT LILBA DCT DETSO DCT KAL DCT BUNOS DCT UDROV DCT TOLPA/K0895F410 M70 SLV |
| Aircraft | A359/H-SDE2E3GHIJ3J4J5LM1ORWXY/LB1D1 |
Departure
| Time | 2026-05-06 11:32 |
|---|---|
| Airport | Calgary International Airport (CYYC) |
Arrival
| Time | N/A |
|---|---|
| Airport | Boryspil International Airport (UKBB) |
| Time | Latitude | Longitude | Altitude | Speed | Heading |
|---|---|---|---|---|---|
| 2026-05-06 10:22 | 51.12916 | -113.99971 | 3561 ft | 0 kts | 348° |
| 2026-05-06 11:17 | 51.12911 | -113.99970 | 3574 ft | 3 kts | 348° |
| 2026-05-06 11:17 | 51.12885 | -113.99961 | 3560 ft | 4 kts | 348° |
| 2026-05-06 11:17 | 51.12861 | -113.99957 | 3560 ft | 4 kts | 17° |
| 2026-05-06 11:17 | 51.12842 | -113.99979 | 3560 ft | 4 kts | 72° |
| 2026-05-06 11:18 | 51.12839 | -114.00017 | 3563 ft | 2 kts | 90° |
| 2026-05-06 11:18 | 51.12839 | -114.00054 | 3562 ft | 4 kts | 90° |
| 2026-05-06 11:18 | 51.12839 | -114.00074 | 3564 ft | 0 kts | 90° |
| 2026-05-06 11:22 | 51.12839 | -114.00068 | 3564 ft | 3 kts | 90° |
| 2026-05-06 11:23 | 51.12839 | -114.00017 | 3563 ft | 5 kts | 90° |
| 2026-05-06 11:23 | 51.12839 | -113.99955 | 3560 ft | 6 kts | 89° |
| 2026-05-06 11:23 | 51.12829 | -113.99891 | 3564 ft | 6 kts | 135° |
| 2026-05-06 11:23 | 51.12775 | -113.99875 | 3563 ft | 10 kts | 176° |
| 2026-05-06 11:24 | 51.12706 | -113.99836 | 3566 ft | 10 kts | 125° |
| 2026-05-06 11:24 | 51.12704 | -113.99729 | 3566 ft | 10 kts | 88° |
| 2026-05-06 11:24 | 51.12706 | -113.99612 | 3565 ft | 11 kts | 90° |
| 2026-05-06 11:24 | 51.12706 | -113.99483 | 3562 ft | 12 kts | 90° |
| 2026-05-06 11:25 | 51.12706 | -113.99344 | 3565 ft | 13 kts | 85° |
| 2026-05-06 11:25 | 51.12766 | -113.99300 | 3564 ft | 10 kts | 357° |
| 2026-05-06 11:25 | 51.12841 | -113.99303 | 3566 ft | 11 kts | 0° |
| 2026-05-06 11:25 | 51.12922 | -113.99303 | 3560 ft | 12 kts | 360° |
| 2026-05-06 11:26 | 51.13008 | -113.99304 | 3564 ft | 13 kts | 360° |
| 2026-05-06 11:26 | 51.13098 | -113.99304 | 3563 ft | 13 kts | 0° |
| 2026-05-06 11:26 | 51.13193 | -113.99303 | 3563 ft | 14 kts | 360° |
| 2026-05-06 11:26 | 51.13283 | -113.99303 | 3565 ft | 12 kts | 0° |
| 2026-05-06 11:27 | 51.13364 | -113.99302 | 3571 ft | 12 kts | 0° |
| 2026-05-06 11:27 | 51.13446 | -113.99303 | 3573 ft | 12 kts | 360° |
| 2026-05-06 11:27 | 51.13534 | -113.99302 | 3577 ft | 13 kts | 0° |
| 2026-05-06 11:27 | 51.13627 | -113.99302 | 3575 ft | 14 kts | 360° |
| 2026-05-06 11:28 | 51.13724 | -113.99302 | 3581 ft | 14 kts | 0° |
| 2026-05-06 11:28 | 51.13825 | -113.99301 | 3584 ft | 15 kts | 0° |
| 2026-05-06 11:28 | 51.13929 | -113.99301 | 3588 ft | 15 kts | 0° |
| 2026-05-06 11:28 | 51.14038 | -113.99303 | 3599 ft | 16 kts | 359° |
| 2026-05-06 11:29 | 51.14152 | -113.99302 | 3602 ft | 17 kts | 360° |
| 2026-05-06 11:29 | 51.14270 | -113.99302 | 3605 ft | 17 kts | 360° |
| 2026-05-06 11:29 | 51.14391 | -113.99302 | 3608 ft | 18 kts | 360° |
| 2026-05-06 11:29 | 51.14513 | -113.99302 | 3611 ft | 17 kts | 0° |
| 2026-05-06 11:30 | 51.14625 | -113.99302 | 3614 ft | 15 kts | 359° |
| 2026-05-06 11:30 | 51.14694 | -113.99303 | 3614 ft | 14 kts | 0° |
| 2026-05-06 11:30 | 51.14815 | -113.99297 | 3618 ft | 12 kts | 15° |
| 2026-05-06 11:30 | 51.14845 | -113.99240 | 3617 ft | 10 kts | 73° |
| 2026-05-06 11:31 | 51.14848 | -113.99129 | 3620 ft | 10 kts | 90° |
| 2026-05-06 11:31 | 51.14831 | -113.99033 | 3614 ft | 8 kts | 152° |
| 2026-05-06 11:31 | 51.14802 | -113.99030 | 3614 ft | 0 kts | 179° |
| 2026-05-06 11:31 | 51.14801 | -113.99030 | 3614 ft | 2 kts | 179° |
| 2026-05-06 11:32 | 51.14576 | -113.99028 | 3614 ft | 69 kts | 180° |
| 2026-05-06 11:32 | 51.13857 | -113.99031 | 3579 ft | 136 kts | 180° |
| 2026-05-06 11:32 | 51.12718 | -113.99030 | 3692 ft | 182 kts | 180° |
| 2026-05-06 11:32 | 51.11484 | -113.99024 | 4603 ft | 177 kts | 181° |
| 2026-05-06 11:33 | 51.10252 | -113.98939 | 5240 ft | 180 kts | 178° |
| 2026-05-06 11:33 | 51.08949 | -113.98795 | 5421 ft | 196 kts | 177° |
| 2026-05-06 11:33 | 51.07531 | -113.98654 | 5565 ft | 214 kts | 178° |
| 2026-05-06 11:33 | 51.05972 | -113.98529 | 5692 ft | 234 kts | 179° |
| 2026-05-06 11:34 | 51.04282 | -113.98416 | 5897 ft | 252 kts | 179° |
| 2026-05-06 11:34 | 51.02468 | -113.98299 | 6130 ft | 268 kts | 179° |
| 2026-05-06 11:34 | 51.00575 | -113.98038 | 6499 ft | 278 kts | 169° |
| 2026-05-06 11:34 | 50.98746 | -113.96929 | 6935 ft | 285 kts | 147° |
| 2026-05-06 11:35 | 50.97363 | -113.94673 | 7378 ft | 289 kts | 118° |
| 2026-05-06 11:35 | 50.96874 | -113.91618 | 7817 ft | 289 kts | 85° |
| 2026-05-06 11:35 | 50.97441 | -113.88629 | 8302 ft | 283 kts | 53° |
| 2026-05-06 11:35 | 50.98689 | -113.86264 | 8867 ft | 279 kts | 40° |
| 2026-05-06 11:36 | 51.00138 | -113.84304 | 9470 ft | 277 kts | 33° |
| 2026-05-06 11:36 | 51.01698 | -113.82516 | 10060 ft | 276 kts | 30° |
| 2026-05-06 11:36 | 51.03310 | -113.80767 | 10377 ft | 287 kts | 29° |
| 2026-05-06 11:36 | 51.04999 | -113.78921 | 10602 ft | 301 kts | 30° |
| 2026-05-06 11:37 | 51.06743 | -113.76945 | 10791 ft | 315 kts | 31° |
| 2026-05-06 11:37 | 51.08548 | -113.74823 | 10997 ft | 329 kts | 32° |
| 2026-05-06 11:37 | 51.10403 | -113.72582 | 11208 ft | 341 kts | 33° |
| 2026-05-06 11:37 | 51.12313 | -113.70237 | 11410 ft | 352 kts | 33° |
| 2026-05-06 11:38 | 51.14278 | -113.67809 | 11625 ft | 362 kts | 33° |
| 2026-05-06 11:38 | 51.16284 | -113.65321 | 11989 ft | 367 kts | 34° |
| 2026-05-06 11:38 | 51.18302 | -113.62815 | 12440 ft | 369 kts | 34° |
| 2026-05-06 11:38 | 51.20331 | -113.60298 | 12885 ft | 371 kts | 33° |
| 2026-05-06 11:39 | 51.22367 | -113.57774 | 13320 ft | 373 kts | 33° |
| 2026-05-06 11:39 | 51.24425 | -113.55225 | 13766 ft | 375 kts | 33° |
| 2026-05-06 11:39 | 51.26490 | -113.52668 | 14170 ft | 376 kts | 33° |
| 2026-05-06 11:39 | 51.28565 | -113.50097 | 14594 ft | 378 kts | 33° |
| 2026-05-06 11:40 | 51.30648 | -113.47512 | 14980 ft | 380 kts | 33° |
| 2026-05-06 11:40 | 51.32710 | -113.44952 | 15362 ft | 381 kts | 33° |
| 2026-05-06 11:40 | 51.34810 | -113.42340 | 15764 ft | 383 kts | 33° |
| 2026-05-06 11:40 | 51.36920 | -113.39714 | 16139 ft | 385 kts | 33° |
| 2026-05-06 11:41 | 51.39041 | -113.37070 | 16482 ft | 387 kts | 33° |
| 2026-05-06 11:41 | 51.41174 | -113.34410 | 16852 ft | 389 kts | 33° |
| 2026-05-06 11:41 | 51.43315 | -113.31733 | 17226 ft | 391 kts | 33° |
| 2026-05-06 11:41 | 51.45481 | -113.29092 | 17622 ft | 391 kts | 30° |
| 2026-05-06 11:42 | 51.47819 | -113.26905 | 17988 ft | 388 kts | 21° |
| 2026-05-06 11:42 | 51.50330 | -113.25342 | 18346 ft | 387 kts | 15° |
| 2026-05-06 11:42 | 51.52899 | -113.24062 | 18676 ft | 387 kts | 12° |
| 2026-05-06 11:42 | 51.55503 | -113.22930 | 19050 ft | 387 kts | 11° |
| 2026-05-06 11:43 | 51.58079 | -113.21888 | 19408 ft | 387 kts | 10° |
| 2026-05-06 11:43 | 51.60699 | -113.20851 | 19741 ft | 387 kts | 10° |
| 2026-05-06 11:43 | 51.63320 | -113.19810 | 20062 ft | 389 kts | 10° |
| 2026-05-06 11:44 | 51.68586 | -113.17672 | 20676 ft | 391 kts | 10° |
| 2026-05-06 11:44 | 51.71239 | -113.16577 | 20938 ft | 394 kts | 11° |
| 2026-05-06 11:44 | 51.73902 | -113.15468 | 21245 ft | 395 kts | 11° |
| 2026-05-06 11:44 | 51.76561 | -113.14357 | 21561 ft | 396 kts | 11° |
| 2026-05-06 11:45 | 51.79231 | -113.13239 | 21861 ft | 397 kts | 11° |
| 2026-05-06 11:45 | 51.81907 | -113.12117 | 22165 ft | 398 kts | 11° |
| 2026-05-06 11:45 | 51.84595 | -113.10989 | 22451 ft | 399 kts | 10° |
| 2026-05-06 11:45 | 51.87250 | -113.09875 | 22743 ft | 400 kts | 10° |
| 2026-05-06 11:46 | 51.89955 | -113.08738 | 23025 ft | 401 kts | 10° |
| 2026-05-06 11:46 | 51.92662 | -113.07601 | 23301 ft | 403 kts | 10° |
| 2026-05-06 11:46 | 51.95380 | -113.06456 | 23613 ft | 404 kts | 11° |
| 2026-05-06 11:46 | 51.98106 | -113.05307 | 23822 ft | 406 kts | 10° |
| 2026-05-06 11:47 | 52.00848 | -113.04150 | 24038 ft | 407 kts | 10° |
| 2026-05-06 11:47 | 52.03598 | -113.02988 | 24263 ft | 409 kts | 10° |
| 2026-05-06 11:47 | 52.06354 | -113.01822 | 24492 ft | 410 kts | 10° |
| 2026-05-06 11:47 | 52.09118 | -113.00650 | 24721 ft | 411 kts | 10° |
| 2026-05-06 11:48 | 52.11888 | -112.99475 | 24937 ft | 412 kts | 10° |
| 2026-05-06 11:48 | 52.14673 | -112.98292 | 25169 ft | 413 kts | 10° |
| 2026-05-06 11:48 | 52.17457 | -112.97107 | 25409 ft | 415 kts | 10° |
| 2026-05-06 11:48 | 52.20253 | -112.95917 | 25619 ft | 416 kts | 10° |
| 2026-05-06 11:49 | 52.23055 | -112.94722 | 25849 ft | 417 kts | 10° |
| 2026-05-06 11:49 | 52.25866 | -112.93521 | 26047 ft | 419 kts | 10° |
| 2026-05-06 11:49 | 52.28697 | -112.92308 | 26259 ft | 421 kts | 10° |
| 2026-05-06 11:49 | 52.31528 | -112.91093 | 26494 ft | 422 kts | 10° |
| 2026-05-06 11:50 | 52.34378 | -112.89867 | 26727 ft | 423 kts | 10° |
| 2026-05-06 11:50 | 52.37229 | -112.88640 | 26994 ft | 424 kts | 10° |
| 2026-05-06 11:50 | 52.40085 | -112.87409 | 27263 ft | 425 kts | 10° |
| 2026-05-06 11:50 | 52.42952 | -112.86172 | 27490 ft | 426 kts | 10° |
| 2026-05-06 11:51 | 52.45782 | -112.84950 | 27721 ft | 428 kts | 10° |
| 2026-05-06 11:51 | 52.48668 | -112.83702 | 27963 ft | 429 kts | 10° |
| 2026-05-06 11:51 | 52.51564 | -112.82448 | 28178 ft | 430 kts | 10° |
| 2026-05-06 11:51 | 52.54462 | -112.81191 | 28373 ft | 432 kts | 10° |
| 2026-05-06 11:52 | 52.57380 | -112.79924 | 28578 ft | 434 kts | 10° |
| 2026-05-06 11:52 | 52.60305 | -112.78652 | 28806 ft | 435 kts | 10° |
| 2026-05-06 11:52 | 52.63233 | -112.77377 | 29031 ft | 436 kts | 10° |
| 2026-05-06 11:52 | 52.66173 | -112.76094 | 29245 ft | 438 kts | 10° |
| 2026-05-06 11:53 | 52.69119 | -112.74808 | 29463 ft | 439 kts | 10° |
| 2026-05-06 11:53 | 52.72075 | -112.73515 | 29671 ft | 440 kts | 10° |
| 2026-05-06 11:53 | 52.75049 | -112.72265 | 29881 ft | 440 kts | 7° |
| 2026-05-06 11:53 | 52.78069 | -112.71479 | 30133 ft | 437 kts | 1° |
| 2026-05-06 11:54 | 52.81096 | -112.71109 | 30398 ft | 435 kts | 360° |
| 2026-05-06 11:54 | 52.84122 | -112.70837 | 30667 ft | 435 kts | 359° |
| 2026-05-06 11:54 | 52.87103 | -112.70625 | 30923 ft | 434 kts | 358° |
| 2026-05-06 11:54 | 52.90118 | -112.70439 | 31196 ft | 433 kts | 358° |
| 2026-05-06 11:55 | 52.93126 | -112.70262 | 31469 ft | 432 kts | 358° |
| 2026-05-06 11:55 | 52.96134 | -112.70084 | 31741 ft | 432 kts | 358° |
| 2026-05-06 11:55 | 52.99136 | -112.69902 | 32003 ft | 431 kts | 358° |
| 2026-05-06 11:55 | 53.02133 | -112.69714 | 32275 ft | 431 kts | 358° |
| 2026-05-06 11:56 | 53.05126 | -112.69523 | 32534 ft | 430 kts | 358° |
| 2026-05-06 11:56 | 53.08116 | -112.69330 | 32781 ft | 430 kts | 358° |
| 2026-05-06 11:56 | 53.11113 | -112.69136 | 32936 ft | 431 kts | 358° |
| 2026-05-06 11:56 | 53.14118 | -112.68940 | 33166 ft | 431 kts | 358° |
| 2026-05-06 11:57 | 53.17111 | -112.68744 | 33436 ft | 430 kts | 358° |
| 2026-05-06 11:57 | 53.20106 | -112.68548 | 33701 ft | 430 kts | 358° |
| 2026-05-06 11:57 | 53.23092 | -112.68352 | 33959 ft | 429 kts | 358° |
| 2026-05-06 11:57 | 53.26073 | -112.68156 | 34193 ft | 429 kts | 358° |
| 2026-05-06 11:58 | 53.29052 | -112.67961 | 34402 ft | 428 kts | 358° |
| 2026-05-06 11:58 | 53.31990 | -112.67768 | 34611 ft | 427 kts | 358° |
| 2026-05-06 11:58 | 53.34964 | -112.67572 | 34829 ft | 427 kts | 358° |
| 2026-05-06 11:58 | 53.37939 | -112.67377 | 35035 ft | 427 kts | 358° |
| 2026-05-06 11:59 | 53.40894 | -112.67183 | 35316 ft | 425 kts | 358° |
| 2026-05-06 11:59 | 53.43852 | -112.66987 | 35545 ft | 424 kts | 358° |
| 2026-05-06 11:59 | 53.46793 | -112.66792 | 35720 ft | 424 kts | 358° |
| 2026-05-06 11:59 | 53.49739 | -112.66598 | 35912 ft | 424 kts | 357° |
| 2026-05-06 12:00 | 53.52685 | -112.66403 | 36086 ft | 423 kts | 357° |
| 2026-05-06 12:00 | 53.55628 | -112.66208 | 36274 ft | 423 kts | 357° |
| 2026-05-06 12:00 | 53.58573 | -112.66012 | 36444 ft | 423 kts | 357° |
| 2026-05-06 12:00 | 53.61511 | -112.65816 | 36615 ft | 422 kts | 357° |
| 2026-05-06 12:01 | 53.67370 | -112.65428 | 36785 ft | 425 kts | 357° |
| 2026-05-06 12:01 | 53.70334 | -112.65230 | 36960 ft | 425 kts | 357° |
| 2026-05-06 12:01 | 53.73284 | -112.65032 | 37085 ft | 425 kts | 357° |
| 2026-05-06 12:02 | 53.79251 | -112.64634 | 37099 ft | 430 kts | 357° |
| 2026-05-06 12:02 | 53.85237 | -112.64230 | 37097 ft | 430 kts | 357° |
| 2026-05-06 12:03 | 53.91213 | -112.63825 | 37097 ft | 430 kts | 357° |
| 2026-05-06 12:03 | 53.97196 | -112.63420 | 37137 ft | 430 kts | 357° |
| 2026-05-06 12:04 | 54.03160 | -112.63021 | 37101 ft | 428 kts | 358° |
| 2026-05-06 12:04 | 54.09075 | -112.62615 | 37103 ft | 428 kts | 358° |
| 2026-05-06 12:05 | 54.15030 | -112.62206 | 37101 ft | 428 kts | 358° |
| 2026-05-06 12:05 | 54.20988 | -112.61798 | 37105 ft | 429 kts | 358° |
| 2026-05-06 12:06 | 54.26962 | -112.61390 | 37109 ft | 430 kts | 357° |
| 2026-05-06 12:06 | 54.32943 | -112.60977 | 37102 ft | 430 kts | 358° |
| 2026-05-06 12:07 | 54.38924 | -112.60563 | 37096 ft | 430 kts | 358° |
| 2026-05-06 12:07 | 54.44868 | -112.60151 | 37103 ft | 430 kts | 357° |
| 2026-05-06 12:08 | 54.50865 | -112.59736 | 37097 ft | 432 kts | 357° |
| 2026-05-06 12:08 | 54.56879 | -112.59318 | 37099 ft | 432 kts | 357° |
| 2026-05-06 12:09 | 54.62882 | -112.58899 | 37090 ft | 431 kts | 358° |
| 2026-05-06 12:09 | 54.68876 | -112.58477 | 37091 ft | 430 kts | 358° |
| 2026-05-06 12:10 | 54.74865 | -112.58056 | 37099 ft | 431 kts | 358° |
| 2026-05-06 12:10 | 54.80839 | -112.57637 | 37099 ft | 432 kts | 358° |
| 2026-05-06 12:11 | 54.86852 | -112.57145 | 37090 ft | 435 kts | 1° |
| 2026-05-06 12:11 | 54.92809 | -112.54833 | 37102 ft | 446 kts | 14° |
| 2026-05-06 12:12 | 54.98566 | -112.50639 | 37096 ft | 449 kts | 18° |
| 2026-05-06 12:12 | 55.04262 | -112.46082 | 37098 ft | 451 kts | 18° |
| 2026-05-06 12:13 | 55.09967 | -112.41461 | 37107 ft | 451 kts | 18° |
| 2026-05-06 12:13 | 55.15653 | -112.36877 | 37110 ft | 449 kts | 18° |
| 2026-05-06 12:14 | 55.21327 | -112.32319 | 37100 ft | 449 kts | 18° |
| 2026-05-06 12:14 | 55.27007 | -112.27750 | 37102 ft | 449 kts | 18° |
| 2026-05-06 12:15 | 55.32648 | -112.23197 | 37104 ft | 449 kts | 18° |
| 2026-05-06 12:15 | 55.38335 | -112.18592 | 37101 ft | 451 kts | 18° |
| 2026-05-06 12:16 | 55.44043 | -112.13955 | 37102 ft | 451 kts | 18° |
| 2026-05-06 12:16 | 55.49740 | -112.09308 | 37099 ft | 451 kts | 18° |
| 2026-05-06 12:17 | 55.55449 | -112.04637 | 37096 ft | 452 kts | 18° |
| 2026-05-06 12:17 | 55.60194 | -112.00744 | 37097 ft | 452 kts | 18° |
| 2026-05-06 12:18 | 55.66813 | -111.95295 | 37095 ft | 452 kts | 18° |
| 2026-05-06 12:18 | 55.71596 | -111.91347 | 37094 ft | 453 kts | 18° |
| 2026-05-06 12:19 | 55.77319 | -111.86609 | 37087 ft | 454 kts | 19° |
| 2026-05-06 12:19 | 55.82992 | -111.81893 | 37102 ft | 452 kts | 19° |
| 2026-05-06 12:20 | 55.88674 | -111.77154 | 37083 ft | 451 kts | 19° |
| 2026-05-06 12:20 | 55.94356 | -111.72407 | 37089 ft | 451 kts | 19° |
| 2026-05-06 12:21 | 56.00039 | -111.67644 | 37100 ft | 451 kts | 19° |
| 2026-05-06 12:21 | 56.05695 | -111.62890 | 37086 ft | 453 kts | 19° |
| 2026-05-06 12:22 | 56.11409 | -111.58070 | 37095 ft | 453 kts | 19° |
| 2026-05-06 12:22 | 56.17120 | -111.53232 | 37088 ft | 452 kts | 19° |
| 2026-05-06 12:23 | 56.22791 | -111.48411 | 37094 ft | 450 kts | 19° |
| 2026-05-06 12:23 | 56.28448 | -111.43591 | 37092 ft | 450 kts | 19° |
| 2026-05-06 12:24 | 56.34109 | -111.38753 | 37084 ft | 450 kts | 19° |
| 2026-05-06 12:24 | 56.39785 | -111.33888 | 37080 ft | 453 kts | 19° |
| 2026-05-06 12:25 | 56.45447 | -111.29016 | 37069 ft | 453 kts | 19° |
| 2026-05-06 12:25 | 56.51148 | -111.24091 | 37079 ft | 453 kts | 19° |
| 2026-05-06 12:26 | 56.56815 | -111.19176 | 37054 ft | 450 kts | 19° |
| 2026-05-06 12:26 | 56.62454 | -111.14274 | 37054 ft | 449 kts | 19° |
| 2026-05-06 12:27 | 56.68103 | -111.09419 | 37055 ft | 449 kts | 18° |
| 2026-05-06 12:27 | 56.73749 | -111.04674 | 37060 ft | 450 kts | 18° |
| 2026-05-06 12:28 | 56.79447 | -110.99881 | 37074 ft | 451 kts | 18° |
| 2026-05-06 12:28 | 56.85140 | -110.95063 | 37081 ft | 451 kts | 18° |
| 2026-05-06 12:29 | 56.90825 | -110.90224 | 37089 ft | 449 kts | 19° |
| 2026-05-06 12:29 | 56.96469 | -110.85402 | 37109 ft | 447 kts | 19° |
| 2026-05-06 12:30 | 57.02106 | -110.80574 | 37103 ft | 447 kts | 19° |
| 2026-05-06 12:30 | 57.07738 | -110.75735 | 37105 ft | 447 kts | 19° |
| 2026-05-06 12:31 | 57.13372 | -110.70877 | 37108 ft | 447 kts | 19° |
| 2026-05-06 12:31 | 57.18969 | -110.66035 | 37106 ft | 447 kts | 19° |
| 2026-05-06 12:32 | 57.24603 | -110.61144 | 37157 ft | 447 kts | 19° |
| 2026-05-06 12:32 | 57.30215 | -110.56253 | 37119 ft | 444 kts | 19° |
| 2026-05-06 12:33 | 57.35798 | -110.51370 | 37099 ft | 443 kts | 19° |
| 2026-05-06 12:33 | 57.41388 | -110.46472 | 37123 ft | 445 kts | 19° |
| 2026-05-06 12:34 | 57.46956 | -110.41573 | 37121 ft | 445 kts | 19° |
| 2026-05-06 12:34 | 57.52555 | -110.36628 | 37113 ft | 445 kts | 19° |
| 2026-05-06 12:35 | 57.58151 | -110.31670 | 37124 ft | 445 kts | 19° |
| 2026-05-06 12:35 | 57.63748 | -110.26693 | 37126 ft | 445 kts | 20° |
| 2026-05-06 12:36 | 57.69311 | -110.21725 | 37127 ft | 442 kts | 20° |
| 2026-05-06 12:36 | 57.74860 | -110.16759 | 37128 ft | 442 kts | 20° |
| 2026-05-06 12:37 | 57.80423 | -110.11766 | 37119 ft | 443 kts | 20° |
| 2026-05-06 12:37 | 57.85985 | -110.06752 | 37134 ft | 443 kts | 20° |
| 2026-05-06 12:38 | 57.91543 | -110.01725 | 37128 ft | 443 kts | 20° |
| 2026-05-06 12:38 | 57.97061 | -109.96717 | 37123 ft | 443 kts | 20° |
| 2026-05-06 12:39 | 58.02612 | -109.91662 | 37127 ft | 442 kts | 20° |
| 2026-05-06 12:39 | 58.08144 | -109.86604 | 37123 ft | 442 kts | 20° |
| 2026-05-06 12:40 | 58.13690 | -109.81520 | 37134 ft | 443 kts | 20° |
| 2026-05-06 12:40 | 58.19233 | -109.76419 | 37146 ft | 443 kts | 20° |
| 2026-05-06 12:41 | 58.24769 | -109.71306 | 37147 ft | 443 kts | 20° |
| 2026-05-06 12:41 | 58.30314 | -109.66168 | 37152 ft | 443 kts | 20° |
| 2026-05-06 12:42 | 58.35860 | -109.61011 | 37154 ft | 443 kts | 20° |
| 2026-05-06 12:42 | 58.41392 | -109.55849 | 37149 ft | 443 kts | 21° |
| 2026-05-06 12:43 | 58.46929 | -109.50663 | 37163 ft | 443 kts | 21° |
| 2026-05-06 12:43 | 58.52433 | -109.45490 | 37164 ft | 443 kts | 21° |
| 2026-05-06 12:44 | 58.57969 | -109.40269 | 37159 ft | 443 kts | 21° |
| 2026-05-06 12:44 | 58.63511 | -109.35024 | 37172 ft | 444 kts | 21° |
| 2026-05-06 12:45 | 58.69052 | -109.29761 | 37172 ft | 444 kts | 21° |
| 2026-05-06 12:46 | 58.77321 | -109.21874 | 37202 ft | 445 kts | 22° |
| 2026-05-06 12:46 | 58.82863 | -109.16562 | 37183 ft | 445 kts | 22° |
| 2026-05-06 12:47 | 58.88407 | -109.11229 | 37182 ft | 445 kts | 22° |
| 2026-05-06 12:47 | 58.93945 | -109.05883 | 37182 ft | 445 kts | 22° |
| 2026-05-06 12:48 | 58.99484 | -109.00520 | 37178 ft | 445 kts | 22° |
| 2026-05-06 12:48 | 59.05054 | -108.95237 | 37176 ft | 445 kts | 21° |
| 2026-05-06 12:49 | 59.10631 | -108.90019 | 37182 ft | 445 kts | 21° |
| 2026-05-06 12:49 | 59.16184 | -108.84807 | 37189 ft | 446 kts | 21° |
| 2026-05-06 12:50 | 59.21766 | -108.79532 | 37203 ft | 446 kts | 21° |
| 2026-05-06 12:50 | 59.27348 | -108.74231 | 37190 ft | 446 kts | 21° |
| 2026-05-06 12:51 | 59.32926 | -108.68913 | 37197 ft | 446 kts | 21° |
| 2026-05-06 12:51 | 59.38501 | -108.63579 | 37202 ft | 446 kts | 21° |
| 2026-05-06 12:52 | 59.44070 | -108.58233 | 37210 ft | 446 kts | 21° |
| 2026-05-06 12:52 | 59.49654 | -108.52853 | 37211 ft | 447 kts | 21° |
| 2026-05-06 12:53 | 59.55241 | -108.47447 | 37222 ft | 447 kts | 22° |
| 2026-05-06 12:53 | 59.60792 | -108.42057 | 37218 ft | 448 kts | 22° |
| 2026-05-06 12:54 | 59.66381 | -108.36612 | 37218 ft | 447 kts | 22° |
| 2026-05-06 12:54 | 59.71963 | -108.31151 | 37226 ft | 447 kts | 22° |
| 2026-05-06 12:55 | 59.77552 | -108.25664 | 37213 ft | 447 kts | 22° |
| 2026-05-06 12:55 | 59.83134 | -108.20165 | 37225 ft | 448 kts | 22° |
| 2026-05-06 12:56 | 59.88723 | -108.14637 | 37227 ft | 448 kts | 22° |
| 2026-05-06 12:56 | 59.94273 | -108.09126 | 37240 ft | 448 kts | 22° |
| 2026-05-06 12:57 | 59.99858 | -108.03559 | 37227 ft | 449 kts | 23° |
| 2026-05-06 12:57 | 60.05440 | -107.97975 | 37230 ft | 449 kts | 23° |
| 2026-05-06 12:58 | 60.11028 | -107.92364 | 37227 ft | 449 kts | 23° |
| 2026-05-06 12:58 | 60.16611 | -107.86735 | 37226 ft | 449 kts | 23° |
| 2026-05-06 12:59 | 60.22201 | -107.81079 | 37227 ft | 449 kts | 23° |
| 2026-05-06 12:59 | 60.27796 | -107.75394 | 37223 ft | 450 kts | 23° |
| 2026-05-06 13:00 | 60.33373 | -107.69707 | 37250 ft | 450 kts | 23° |
| 2026-05-06 13:00 | 60.38925 | -107.64023 | 37227 ft | 450 kts | 24° |
| 2026-05-06 13:01 | 60.44506 | -107.58287 | 37224 ft | 449 kts | 24° |
| 2026-05-06 13:01 | 60.50076 | -107.52542 | 37224 ft | 449 kts | 24° |
| 2026-05-06 13:02 | 60.55658 | -107.46761 | 37222 ft | 449 kts | 24° |
| 2026-05-06 13:02 | 60.61227 | -107.40970 | 37223 ft | 450 kts | 24° |
| 2026-05-06 13:03 | 60.66798 | -107.35155 | 37224 ft | 450 kts | 24° |
| 2026-05-06 13:03 | 60.72328 | -107.29360 | 37272 ft | 450 kts | 24° |
| 2026-05-06 13:04 | 60.77897 | -107.23500 | 37226 ft | 450 kts | 24° |
| 2026-05-06 13:04 | 60.83470 | -107.17615 | 37211 ft | 450 kts | 24° |
| 2026-05-06 13:05 | 60.89032 | -107.11717 | 37221 ft | 450 kts | 24° |
| 2026-05-06 13:05 | 60.94590 | -107.05802 | 37230 ft | 450 kts | 24° |
| 2026-05-06 13:06 | 61.00119 | -106.99919 | 37229 ft | 449 kts | 24° |
| 2026-05-06 13:06 | 61.05780 | -106.94447 | 37230 ft | 448 kts | 21° |
| 2026-05-06 13:07 | 61.11487 | -106.89201 | 37229 ft | 448 kts | 21° |
| 2026-05-06 13:07 | 61.17184 | -106.83926 | 37230 ft | 449 kts | 22° |
| 2026-05-06 13:08 | 61.21928 | -106.79475 | 37220 ft | 450 kts | 22° |
| 2026-05-06 13:08 | 61.27630 | -106.74080 | 37227 ft | 450 kts | 22° |
| 2026-05-06 13:09 | 61.33325 | -106.68665 | 37224 ft | 450 kts | 22° |
| 2026-05-06 13:09 | 61.39023 | -106.63228 | 37222 ft | 450 kts | 22° |
| 2026-05-06 13:10 | 61.44719 | -106.57773 | 37222 ft | 450 kts | 22° |
| 2026-05-06 13:10 | 61.50416 | -106.52296 | 37228 ft | 450 kts | 22° |
| 2026-05-06 13:11 | 61.56109 | -106.46799 | 37221 ft | 450 kts | 22° |
| 2026-05-06 13:11 | 61.61792 | -106.41289 | 37225 ft | 451 kts | 22° |
| 2026-05-06 13:12 | 61.67463 | -106.35771 | 37219 ft | 452 kts | 22° |
| 2026-05-06 13:12 | 61.73181 | -106.30183 | 37219 ft | 452 kts | 22° |
| 2026-05-06 13:13 | 61.78891 | -106.24579 | 37215 ft | 452 kts | 22° |
| 2026-05-06 13:13 | 61.84601 | -106.18953 | 37217 ft | 452 kts | 22° |
| 2026-05-06 13:14 | 61.90309 | -106.13306 | 37213 ft | 452 kts | 22° |
| 2026-05-06 13:14 | 61.96008 | -106.07643 | 37213 ft | 452 kts | 23° |
| 2026-05-06 13:15 | 62.01710 | -106.01954 | 37254 ft | 452 kts | 23° |
| 2026-05-06 13:15 | 62.07424 | -105.96228 | 37219 ft | 455 kts | 23° |
| 2026-05-06 13:16 | 62.13155 | -105.90465 | 37212 ft | 456 kts | 23° |
| 2026-05-06 13:16 | 62.18864 | -105.84698 | 37215 ft | 456 kts | 23° |
| 2026-05-06 13:17 | 62.24595 | -105.78884 | 37213 ft | 456 kts | 23° |
| 2026-05-06 13:17 | 62.30327 | -105.73043 | 37217 ft | 455 kts | 23° |
| 2026-05-06 13:18 | 62.36054 | -105.67184 | 37219 ft | 455 kts | 23° |
| 2026-05-06 13:18 | 62.41739 | -105.61343 | 37228 ft | 455 kts | 23° |
| 2026-05-06 13:19 | 62.47463 | -105.55436 | 37247 ft | 456 kts | 24° |
| 2026-05-06 13:19 | 62.53208 | -105.49482 | 37226 ft | 459 kts | 24° |
| 2026-05-06 13:20 | 62.58969 | -105.43488 | 37224 ft | 459 kts | 24° |
| 2026-05-06 13:20 | 62.64729 | -105.37467 | 37243 ft | 459 kts | 24° |
| 2026-05-06 13:21 | 62.70483 | -105.31426 | 37238 ft | 459 kts | 24° |
| 2026-05-06 13:21 | 62.76231 | -105.25366 | 37230 ft | 459 kts | 24° |
| 2026-05-06 13:22 | 62.81977 | -105.19281 | 37242 ft | 459 kts | 24° |
| 2026-05-06 13:22 | 62.87718 | -105.13176 | 37240 ft | 459 kts | 24° |
| 2026-05-06 13:23 | 62.93422 | -105.07083 | 37253 ft | 460 kts | 24° |
| 2026-05-06 13:23 | 62.99152 | -105.00746 | 37245 ft | 462 kts | 28° |
| 2026-05-06 13:24 | 63.04477 | -104.92706 | 37244 ft | 464 kts | 34° |
| 2026-05-06 13:24 | 63.09675 | -104.84214 | 37247 ft | 464 kts | 34° |
| 2026-05-06 13:25 | 63.14843 | -104.75609 | 37246 ft | 464 kts | 34° |
| 2026-05-06 13:25 | 63.19972 | -104.67045 | 37251 ft | 464 kts | 34° |
| 2026-05-06 13:26 | 63.25133 | -104.58413 | 37246 ft | 464 kts | 34° |
| 2026-05-06 13:26 | 63.30293 | -104.49756 | 37251 ft | 464 kts | 35° |
| 2026-05-06 13:27 | 63.35444 | -104.41074 | 37267 ft | 464 kts | 35° |
| 2026-05-06 13:27 | 63.40595 | -104.32351 | 37259 ft | 464 kts | 35° |
| 2026-05-06 13:28 | 63.45704 | -104.23658 | 37251 ft | 464 kts | 35° |
| 2026-05-06 13:28 | 63.50836 | -104.14885 | 37256 ft | 464 kts | 35° |
| 2026-05-06 13:29 | 63.55966 | -104.06075 | 37269 ft | 464 kts | 35° |
| 2026-05-06 13:29 | 63.61093 | -103.97230 | 37286 ft | 464 kts | 35° |
| 2026-05-06 13:30 | 63.66195 | -103.88390 | 37273 ft | 467 kts | 36° |
| 2026-05-06 13:30 | 63.71346 | -103.79419 | 37266 ft | 467 kts | 36° |
| 2026-05-06 13:31 | 63.76481 | -103.70433 | 37281 ft | 467 kts | 36° |
| 2026-05-06 13:31 | 63.81611 | -103.61413 | 37277 ft | 467 kts | 36° |
| 2026-05-06 13:32 | 63.86735 | -103.52362 | 37281 ft | 467 kts | 36° |
| 2026-05-06 13:32 | 63.91855 | -103.43275 | 37280 ft | 467 kts | 36° |
| 2026-05-06 13:33 | 63.96977 | -103.34139 | 37288 ft | 469 kts | 36° |
| 2026-05-06 13:33 | 64.02114 | -103.24936 | 37283 ft | 470 kts | 36° |
| 2026-05-06 13:34 | 64.07226 | -103.15732 | 37284 ft | 470 kts | 36° |
| 2026-05-06 13:34 | 64.12356 | -103.06452 | 37285 ft | 470 kts | 36° |
| 2026-05-06 13:35 | 64.17479 | -102.97138 | 37294 ft | 470 kts | 37° |
| 2026-05-06 13:35 | 64.22569 | -102.87839 | 37293 ft | 470 kts | 37° |
| 2026-05-06 13:36 | 64.27686 | -102.78445 | 37311 ft | 470 kts | 37° |
| 2026-05-06 13:36 | 64.32804 | -102.69008 | 37292 ft | 472 kts | 37° |
| 2026-05-06 13:37 | 64.37934 | -102.59498 | 37289 ft | 473 kts | 37° |
| 2026-05-06 13:37 | 64.43067 | -102.49933 | 37289 ft | 473 kts | 37° |
| 2026-05-06 13:38 | 64.48192 | -102.40336 | 37296 ft | 473 kts | 37° |
| 2026-05-06 13:38 | 64.53275 | -102.30774 | 37295 ft | 473 kts | 37° |
| 2026-05-06 13:39 | 64.58383 | -102.21114 | 37290 ft | 473 kts | 37° |
| 2026-05-06 13:39 | 64.63489 | -102.11415 | 37299 ft | 474 kts | 38° |
| 2026-05-06 13:40 | 64.68614 | -102.01628 | 37293 ft | 476 kts | 38° |
| 2026-05-06 13:40 | 64.73742 | -101.91782 | 37295 ft | 477 kts | 38° |
| 2026-05-06 13:41 | 64.78863 | -101.81901 | 37296 ft | 477 kts | 38° |
| 2026-05-06 13:41 | 64.83952 | -101.72032 | 37289 ft | 476 kts | 38° |
| 2026-05-06 13:42 | 64.89053 | -101.62088 | 37294 ft | 476 kts | 38° |
| 2026-05-06 13:42 | 64.94148 | -101.52108 | 37298 ft | 476 kts | 38° |
| 2026-05-06 13:43 | 64.99243 | -101.42079 | 37296 ft | 478 kts | 39° |
| 2026-05-06 13:43 | 65.04353 | -101.31964 | 37295 ft | 479 kts | 39° |
| 2026-05-06 13:44 | 65.09460 | -101.21802 | 37295 ft | 479 kts | 39° |
| 2026-05-06 13:44 | 65.14564 | -101.11595 | 37295 ft | 479 kts | 39° |
| 2026-05-06 13:45 | 65.19656 | -101.01358 | 37291 ft | 479 kts | 39° |
| 2026-05-06 13:45 | 65.27280 | -100.85931 | 37292 ft | 479 kts | 39° |
| 2026-05-06 13:46 | 65.32332 | -100.75644 | 37295 ft | 481 kts | 40° |
| 2026-05-06 13:46 | 65.37424 | -100.65217 | 37295 ft | 482 kts | 40° |
| 2026-05-06 13:47 | 65.42514 | -100.54741 | 37295 ft | 482 kts | 40° |
| 2026-05-06 13:47 | 65.47603 | -100.44209 | 37296 ft | 482 kts | 40° |
| 2026-05-06 13:48 | 65.52679 | -100.33651 | 37292 ft | 482 kts | 40° |
| 2026-05-06 13:48 | 65.57756 | -100.23031 | 37292 ft | 482 kts | 40° |
| 2026-05-06 13:49 | 65.62814 | -100.12397 | 37290 ft | 482 kts | 40° |
| 2026-05-06 13:49 | 65.67890 | -100.01685 | 37290 ft | 484 kts | 40° |
| 2026-05-06 13:50 | 65.72958 | -99.90907 | 37291 ft | 485 kts | 41° |
| 2026-05-06 13:50 | 65.77993 | -99.80136 | 37282 ft | 485 kts | 41° |
| 2026-05-06 13:51 | 65.83047 | -99.69272 | 37290 ft | 484 kts | 41° |
| 2026-05-06 13:51 | 65.88106 | -99.58343 | 37279 ft | 484 kts | 41° |
| 2026-05-06 13:52 | 65.93154 | -99.47377 | 37282 ft | 484 kts | 41° |
| 2026-05-06 13:52 | 65.98196 | -99.36388 | 37285 ft | 486 kts | 41° |
| 2026-05-06 13:53 | 66.03203 | -99.25385 | 37276 ft | 486 kts | 41° |
| 2026-05-06 13:53 | 66.08245 | -99.14237 | 37276 ft | 486 kts | 41° |
| 2026-05-06 13:54 | 66.13271 | -99.03070 | 37276 ft | 486 kts | 41° |
| 2026-05-06 13:54 | 66.18297 | -98.91844 | 37268 ft | 486 kts | 41° |
| 2026-05-06 13:55 | 66.23312 | -98.80583 | 37267 ft | 486 kts | 42° |
| 2026-05-06 13:55 | 66.28317 | -98.69279 | 37264 ft | 486 kts | 42° |
| 2026-05-06 13:56 | 66.32471 | -98.59838 | 37265 ft | 487 kts | 42° |
| 2026-05-06 13:56 | 66.38281 | -98.46563 | 37265 ft | 488 kts | 42° |
| 2026-05-06 13:57 | 66.42469 | -98.36964 | 37275 ft | 488 kts | 43° |
| 2026-05-06 13:57 | 66.47432 | -98.25525 | 37273 ft | 488 kts | 43° |
| 2026-05-06 13:58 | 66.52415 | -98.13951 | 37274 ft | 488 kts | 43° |
| 2026-05-06 13:58 | 66.57391 | -98.02324 | 37271 ft | 488 kts | 43° |
| 2026-05-06 13:59 | 66.62362 | -97.90656 | 37271 ft | 488 kts | 43° |
| 2026-05-06 13:59 | 66.67289 | -97.79032 | 37259 ft | 488 kts | 43° |
| 2026-05-06 14:00 | 66.72239 | -97.67281 | 37262 ft | 488 kts | 43° |
| 2026-05-06 14:00 | 66.77189 | -97.55486 | 37264 ft | 489 kts | 43° |
| 2026-05-06 14:01 | 66.82132 | -97.43604 | 37254 ft | 490 kts | 43° |
| 2026-05-06 14:01 | 66.87071 | -97.31646 | 37260 ft | 490 kts | 43° |
| 2026-05-06 14:02 | 66.91997 | -97.19664 | 37260 ft | 490 kts | 43° |
| 2026-05-06 14:02 | 66.96889 | -97.07705 | 37254 ft | 492 kts | 44° |
| 2026-05-06 14:03 | 67.01799 | -96.95501 | 37260 ft | 492 kts | 45° |
| 2026-05-06 14:03 | 67.06585 | -96.82959 | 37252 ft | 492 kts | 46° |
| 2026-05-06 14:04 | 67.11342 | -96.70286 | 37254 ft | 493 kts | 46° |
| 2026-05-06 14:04 | 67.16109 | -96.57585 | 37257 ft | 493 kts | 46° |
| 2026-05-06 14:05 | 67.20867 | -96.44846 | 37249 ft | 493 kts | 46° |
| 2026-05-06 14:05 | 67.25623 | -96.32048 | 37250 ft | 495 kts | 47° |
| 2026-05-06 14:06 | 67.30389 | -96.19150 | 37251 ft | 496 kts | 47° |
| 2026-05-06 14:06 | 67.35151 | -96.06188 | 37252 ft | 496 kts | 47° |
| 2026-05-06 14:07 | 67.39878 | -95.93236 | 37252 ft | 496 kts | 47° |
| 2026-05-06 14:07 | 67.44616 | -95.80178 | 37254 ft | 496 kts | 47° |
| 2026-05-06 14:08 | 67.49362 | -95.67040 | 37256 ft | 497 kts | 47° |
| 2026-05-06 14:08 | 67.54088 | -95.53841 | 37240 ft | 498 kts | 47° |
| 2026-05-06 14:09 | 67.58822 | -95.40549 | 37257 ft | 499 kts | 48° |
| 2026-05-06 14:09 | 67.63543 | -95.27183 | 37257 ft | 499 kts | 48° |
| 2026-05-06 14:10 | 67.68259 | -95.13758 | 37254 ft | 499 kts | 48° |
| 2026-05-06 14:10 | 67.72959 | -95.00298 | 37263 ft | 499 kts | 48° |
| 2026-05-06 14:11 | 67.77626 | -94.86850 | 37260 ft | 499 kts | 48° |
| 2026-05-06 14:11 | 67.82305 | -94.73283 | 37252 ft | 499 kts | 49° |
| 2026-05-06 14:12 | 67.86976 | -94.59655 | 37248 ft | 500 kts | 49° |
| 2026-05-06 14:12 | 67.91642 | -94.45950 | 37248 ft | 500 kts | 49° |
| 2026-05-06 14:13 | 67.96301 | -94.32176 | 37248 ft | 500 kts | 49° |
| 2026-05-06 14:13 | 68.00920 | -94.18433 | 37244 ft | 500 kts | 49° |
| 2026-05-06 14:14 | 68.05558 | -94.04545 | 37251 ft | 500 kts | 49° |
| 2026-05-06 14:14 | 68.10179 | -93.90613 | 37253 ft | 500 kts | 49° |
| 2026-05-06 14:15 | 68.14786 | -93.76635 | 37246 ft | 500 kts | 50° |
| 2026-05-06 14:15 | 68.19401 | -93.62534 | 37257 ft | 503 kts | 50° |
| 2026-05-06 14:16 | 68.24020 | -93.48334 | 37254 ft | 504 kts | 50° |
| 2026-05-06 14:16 | 68.28627 | -93.34080 | 37252 ft | 504 kts | 50° |
| 2026-05-06 14:17 | 68.33189 | -93.19869 | 37257 ft | 504 kts | 50° |
| 2026-05-06 14:17 | 68.37770 | -93.05499 | 37244 ft | 504 kts | 50° |
| 2026-05-06 14:18 | 68.42337 | -92.91075 | 37247 ft | 504 kts | 51° |
| 2026-05-06 14:18 | 68.46895 | -92.76592 | 37248 ft | 505 kts | 51° |
| 2026-05-06 14:19 | 68.51456 | -92.61991 | 37243 ft | 505 kts | 51° |
| 2026-05-06 14:19 | 68.56013 | -92.47330 | 37241 ft | 507 kts | 51° |
| 2026-05-06 14:20 | 68.60551 | -92.32582 | 37233 ft | 507 kts | 51° |
| 2026-05-06 14:20 | 68.65083 | -92.17755 | 37233 ft | 507 kts | 52° |
| 2026-05-06 14:21 | 68.69611 | -92.02854 | 37236 ft | 507 kts | 52° |
| 2026-05-06 14:21 | 68.74092 | -91.88012 | 37224 ft | 508 kts | 52° |
| 2026-05-06 14:22 | 68.78596 | -91.72985 | 37225 ft | 508 kts | 52° |
| 2026-05-06 14:22 | 68.83090 | -91.57883 | 37225 ft | 508 kts | 52° |
| 2026-05-06 14:23 | 68.87566 | -91.42736 | 37219 ft | 509 kts | 52° |
| 2026-05-06 14:23 | 68.92046 | -91.27467 | 37222 ft | 510 kts | 53° |
| 2026-05-06 14:24 | 68.96522 | -91.12107 | 37221 ft | 510 kts | 53° |
| 2026-05-06 14:24 | 69.01169 | -90.97322 | 37226 ft | 512 kts | 46° |
| 2026-05-06 14:25 | 69.06312 | -90.83503 | 37223 ft | 513 kts | 45° |
| 2026-05-06 14:25 | 69.11529 | -90.69810 | 37217 ft | 514 kts | 45° |
| 2026-05-06 14:26 | 69.16744 | -90.56082 | 37223 ft | 514 kts | 45° |
| 2026-05-06 14:26 | 69.21933 | -90.42288 | 37227 ft | 514 kts | 45° |
| 2026-05-06 14:27 | 69.27133 | -90.28342 | 37215 ft | 516 kts | 45° |
| 2026-05-06 14:27 | 69.32327 | -90.14310 | 37218 ft | 516 kts | 45° |
| 2026-05-06 14:28 | 69.37472 | -90.00315 | 37218 ft | 516 kts | 45° |
| 2026-05-06 14:28 | 69.42622 | -89.86208 | 37209 ft | 515 kts | 46° |
| 2026-05-06 14:29 | 69.47778 | -89.72043 | 37210 ft | 515 kts | 45° |
| 2026-05-06 14:29 | 69.52946 | -89.57855 | 37215 ft | 515 kts | 45° |
| 2026-05-06 14:30 | 69.58112 | -89.43566 | 37210 ft | 517 kts | 47° |
| 2026-05-06 14:30 | 69.63211 | -89.28940 | 37213 ft | 519 kts | 46° |
| 2026-05-06 14:31 | 69.68325 | -89.14287 | 37212 ft | 519 kts | 46° |
| 2026-05-06 14:31 | 69.73443 | -88.99638 | 37210 ft | 518 kts | 46° |
| 2026-05-06 14:32 | 69.78554 | -88.84931 | 37210 ft | 518 kts | 46° |
| 2026-05-06 14:32 | 69.83651 | -88.70158 | 37204 ft | 518 kts | 47° |
| 2026-05-06 14:33 | 69.88736 | -88.55306 | 37206 ft | 520 kts | 46° |
| 2026-05-06 14:33 | 69.93829 | -88.40318 | 37206 ft | 521 kts | 47° |
| 2026-05-06 14:34 | 69.98884 | -88.25331 | 37195 ft | 521 kts | 47° |
| 2026-05-06 14:34 | 70.03951 | -88.10197 | 37199 ft | 521 kts | 47° |
| 2026-05-06 14:35 | 70.09020 | -87.94948 | 37204 ft | 521 kts | 47° |
| 2026-05-06 14:35 | 70.14065 | -87.79654 | 37188 ft | 521 kts | 47° |
| 2026-05-06 14:36 | 70.19095 | -87.64291 | 37212 ft | 521 kts | 47° |
| 2026-05-06 14:36 | 70.24127 | -87.48807 | 37202 ft | 524 kts | 47° |
| 2026-05-06 14:37 | 70.29163 | -87.33195 | 37188 ft | 524 kts | 48° |
| 2026-05-06 14:37 | 70.34194 | -87.17479 | 37197 ft | 524 kts | 48° |
| 2026-05-06 14:38 | 70.39207 | -87.01699 | 37201 ft | 524 kts | 48° |
| 2026-05-06 14:38 | 70.44175 | -86.85941 | 37197 ft | 524 kts | 48° |
| 2026-05-06 14:39 | 70.49156 | -86.70018 | 37199 ft | 524 kts | 49° |
| 2026-05-06 14:39 | 70.54120 | -86.54015 | 37214 ft | 525 kts | 48° |
| 2026-05-06 14:40 | 70.59098 | -86.37858 | 37222 ft | 527 kts | 49° |
| 2026-05-06 14:40 | 70.64073 | -86.21590 | 37222 ft | 528 kts | 49° |
| 2026-05-06 14:41 | 70.69027 | -86.05256 | 37221 ft | 527 kts | 49° |
| 2026-05-06 14:41 | 70.73965 | -85.88843 | 37227 ft | 527 kts | 49° |
| 2026-05-06 14:42 | 70.78891 | -85.72342 | 37228 ft | 527 kts | 49° |
| 2026-05-06 14:42 | 70.83800 | -85.55760 | 37226 ft | 527 kts | 49° |
| 2026-05-06 14:43 | 70.88709 | -85.39046 | 37227 ft | 530 kts | 49° |
| 2026-05-06 14:43 | 70.93584 | -85.22322 | 37227 ft | 531 kts | 50° |
| 2026-05-06 14:44 | 70.98479 | -85.05393 | 37224 ft | 531 kts | 50° |
| 2026-05-06 14:45 | 71.05069 | -84.82980 | 37223 ft | 531 kts | 48° |
| 2026-05-06 14:45 | 71.10071 | -84.66248 | 37222 ft | 531 kts | 49° |
| 2026-05-06 14:46 | 71.15055 | -84.49415 | 37218 ft | 531 kts | 49° |
| 2026-05-06 14:46 | 71.20012 | -84.32483 | 37210 ft | 530 kts | 49° |
| 2026-05-06 14:47 | 71.24945 | -84.15467 | 37217 ft | 529 kts | 49° |
| 2026-05-06 14:47 | 71.29853 | -83.98397 | 37218 ft | 529 kts | 49° |
| 2026-05-06 14:48 | 71.34725 | -83.81314 | 37214 ft | 529 kts | 50° |
| 2026-05-06 14:48 | 71.39601 | -83.64075 | 37217 ft | 529 kts | 50° |
| 2026-05-06 14:49 | 71.44465 | -83.46736 | 37221 ft | 529 kts | 50° |
| 2026-05-06 14:49 | 71.49318 | -83.29290 | 37221 ft | 532 kts | 50° |
| 2026-05-06 14:50 | 71.54187 | -83.11643 | 37194 ft | 533 kts | 50° |
| 2026-05-06 14:50 | 71.58999 | -82.94054 | 37224 ft | 532 kts | 50° |
| 2026-05-06 14:51 | 71.63823 | -82.76272 | 37226 ft | 532 kts | 50° |
| 2026-05-06 14:51 | 71.68626 | -82.58416 | 37220 ft | 532 kts | 51° |
| 2026-05-06 14:52 | 71.73409 | -82.40481 | 37231 ft | 532 kts | 51° |
| 2026-05-06 14:52 | 71.78188 | -82.22410 | 37236 ft | 533 kts | 51° |
| 2026-05-06 14:53 | 71.82967 | -82.04178 | 37235 ft | 535 kts | 51° |
| 2026-05-06 14:53 | 71.87737 | -81.85822 | 37236 ft | 536 kts | 51° |
| 2026-05-06 14:54 | 71.92471 | -81.67444 | 37235 ft | 535 kts | 51° |
| 2026-05-06 14:54 | 71.97223 | -81.48837 | 37241 ft | 535 kts | 51° |
| 2026-05-06 14:55 | 72.01934 | -81.30224 | 37233 ft | 534 kts | 52° |
| 2026-05-06 14:55 | 72.06592 | -81.11657 | 37264 ft | 535 kts | 51° |
| 2026-05-06 14:56 | 72.11285 | -80.92785 | 37258 ft | 538 kts | 52° |
| 2026-05-06 14:56 | 72.15973 | -80.73763 | 37255 ft | 538 kts | 52° |
| 2026-05-06 14:57 | 72.20639 | -80.54656 | 37264 ft | 538 kts | 52° |
| 2026-05-06 14:57 | 72.25290 | -80.35441 | 37258 ft | 538 kts | 52° |
| 2026-05-06 14:58 | 72.29916 | -80.16155 | 37284 ft | 537 kts | 52° |
| 2026-05-06 14:58 | 72.34521 | -79.96776 | 37285 ft | 537 kts | 52° |
| 2026-05-06 14:59 | 72.39085 | -79.77394 | 37276 ft | 539 kts | 52° |
| 2026-05-06 14:59 | 72.43679 | -79.57700 | 37283 ft | 540 kts | 53° |
| 2026-05-06 15:00 | 72.48251 | -79.37918 | 37282 ft | 540 kts | 53° |
| 2026-05-06 15:00 | 72.52810 | -79.18013 | 37286 ft | 540 kts | 53° |
| 2026-05-06 15:01 | 72.57346 | -78.98021 | 37276 ft | 541 kts | 53° |
| 2026-05-06 15:01 | 72.61862 | -78.77925 | 37272 ft | 540 kts | 53° |
| 2026-05-06 15:02 | 72.66349 | -78.57763 | 37266 ft | 541 kts | 53° |
| 2026-05-06 15:02 | 72.70843 | -78.37381 | 37260 ft | 543 kts | 53° |
| 2026-05-06 15:03 | 72.75314 | -78.16908 | 37257 ft | 543 kts | 54° |
| 2026-05-06 15:03 | 72.79746 | -77.96417 | 37258 ft | 543 kts | 54° |
| 2026-05-06 15:04 | 72.84181 | -77.75710 | 37274 ft | 543 kts | 54° |
| 2026-05-06 15:04 | 72.88594 | -77.54902 | 37283 ft | 543 kts | 54° |
| 2026-05-06 15:05 | 72.92984 | -77.34002 | 37304 ft | 542 kts | 54° |
| 2026-05-06 15:05 | 72.97326 | -77.12972 | 37315 ft | 543 kts | 54° |
| 2026-05-06 15:06 | 73.01560 | -76.91760 | 37309 ft | 544 kts | 58° |
| 2026-05-06 15:06 | 73.05398 | -76.69441 | 37310 ft | 544 kts | 60° |
| 2026-05-06 15:07 | 73.09111 | -76.46818 | 37316 ft | 544 kts | 61° |
| 2026-05-06 15:07 | 73.12831 | -76.24158 | 37331 ft | 544 kts | 60° |
| 2026-05-06 15:08 | 73.16562 | -76.01463 | 37328 ft | 544 kts | 61° |
| 2026-05-06 15:08 | 73.20279 | -75.78679 | 37333 ft | 545 kts | 61° |
| 2026-05-06 15:08 | 73.22132 | -75.67227 | 37455 ft | 546 kts | 61° |
| 2026-05-06 15:09 | 73.23975 | -75.55770 | 37770 ft | 543 kts | 61° |
| 2026-05-06 15:09 | 73.25773 | -75.44526 | 38149 ft | 538 kts | 61° |
| 2026-05-06 15:09 | 73.27521 | -75.33127 | 38465 ft | 535 kts | 68° |
| 2026-05-06 15:09 | 73.28626 | -75.20839 | 38651 ft | 531 kts | 81° |
| 2026-05-06 15:10 | 73.29144 | -75.08187 | 38796 ft | 529 kts | 81° |
| 2026-05-06 15:10 | 73.30067 | -74.95795 | 38944 ft | 531 kts | 72° |
| 2026-05-06 15:10 | 73.31413 | -74.83842 | 39082 ft | 531 kts | 66° |
| 2026-05-06 15:10 | 73.33028 | -74.72236 | 39206 ft | 531 kts | 63° |
| 2026-05-06 15:11 | 73.34770 | -74.60915 | 39307 ft | 531 kts | 61° |
| 2026-05-06 15:11 | 73.38374 | -74.38284 | 39330 ft | 535 kts | 61° |
| 2026-05-06 15:12 | 73.41927 | -74.15409 | 39334 ft | 535 kts | 62° |
| 2026-05-06 15:12 | 73.45393 | -73.92339 | 39332 ft | 535 kts | 62° |
| 2026-05-06 15:13 | 73.48821 | -73.69070 | 39334 ft | 535 kts | 63° |
| 2026-05-06 15:13 | 73.52215 | -73.45741 | 39333 ft | 535 kts | 63° |
| 2026-05-06 15:14 | 73.55583 | -73.22345 | 39334 ft | 535 kts | 63° |
| 2026-05-06 15:14 | 73.58932 | -72.98821 | 39336 ft | 535 kts | 63° |
| 2026-05-06 15:15 | 73.62230 | -72.75386 | 39330 ft | 536 kts | 63° |
| 2026-05-06 15:15 | 73.65527 | -72.51674 | 39340 ft | 536 kts | 63° |
| 2026-05-06 15:16 | 73.68800 | -72.27846 | 39332 ft | 536 kts | 64° |
| 2026-05-06 15:16 | 73.72051 | -72.03898 | 39333 ft | 536 kts | 64° |
| 2026-05-06 15:17 | 73.75270 | -71.79885 | 39335 ft | 536 kts | 64° |
| 2026-05-06 15:17 | 73.78463 | -71.55781 | 39337 ft | 536 kts | 64° |
| 2026-05-06 15:18 | 73.81654 | -71.31636 | 39336 ft | 536 kts | 63° |
| 2026-05-06 15:18 | 73.84847 | -71.07428 | 39346 ft | 537 kts | 63° |
| 2026-05-06 15:19 | 73.87967 | -70.83225 | 39344 ft | 537 kts | 64° |
| 2026-05-06 15:19 | 73.91072 | -70.58712 | 39341 ft | 537 kts | 64° |
| 2026-05-06 15:20 | 73.94133 | -70.34127 | 39346 ft | 537 kts | 64° |
| 2026-05-06 15:20 | 73.97163 | -70.09433 | 39342 ft | 537 kts | 64° |
| 2026-05-06 15:21 | 74.00164 | -69.84664 | 39341 ft | 537 kts | 65° |
| 2026-05-06 15:21 | 74.03139 | -69.59776 | 39343 ft | 537 kts | 65° |
| 2026-05-06 15:22 | 74.06084 | -69.34820 | 39338 ft | 537 kts | 65° |
| 2026-05-06 15:22 | 74.08995 | -69.09813 | 39341 ft | 537 kts | 65° |
| 2026-05-06 15:23 | 74.11864 | -68.84834 | 39355 ft | 537 kts | 65° |
| 2026-05-06 15:23 | 74.14723 | -68.59610 | 39340 ft | 537 kts | 65° |
| 2026-05-06 15:24 | 74.17551 | -68.34301 | 39343 ft | 537 kts | 66° |
| 2026-05-06 15:24 | 74.20351 | -68.08899 | 39360 ft | 537 kts | 66° |
| 2026-05-06 15:25 | 74.23120 | -67.83419 | 39344 ft | 537 kts | 66° |
| 2026-05-06 15:25 | 74.25864 | -67.57809 | 39349 ft | 537 kts | 66° |
| 2026-05-06 15:26 | 74.28572 | -67.32162 | 39355 ft | 537 kts | 66° |
| 2026-05-06 15:26 | 74.31255 | -67.06391 | 39354 ft | 537 kts | 67° |
| 2026-05-06 15:27 | 74.33888 | -66.80719 | 39353 ft | 537 kts | 67° |
| 2026-05-06 15:27 | 74.36512 | -66.54760 | 39355 ft | 537 kts | 67° |
| 2026-05-06 15:28 | 74.39103 | -66.28737 | 39354 ft | 537 kts | 68° |
| 2026-05-06 15:28 | 74.41664 | -66.02630 | 39354 ft | 538 kts | 68° |
| 2026-05-06 15:29 | 74.44193 | -65.76449 | 39358 ft | 537 kts | 68° |
| 2026-05-06 15:29 | 74.46691 | -65.50180 | 39357 ft | 537 kts | 68° |
| 2026-05-06 15:30 | 74.49159 | -65.23816 | 39357 ft | 538 kts | 68° |
| 2026-05-06 15:30 | 74.51582 | -64.97527 | 39357 ft | 538 kts | 69° |
| 2026-05-06 15:31 | 74.53989 | -64.70983 | 39357 ft | 538 kts | 69° |
| 2026-05-06 15:31 | 74.56365 | -64.44352 | 39357 ft | 537 kts | 69° |
| 2026-05-06 15:32 | 74.59854 | -64.04442 | 39351 ft | 537 kts | 69° |
| 2026-05-06 15:32 | 74.62145 | -63.77676 | 39363 ft | 537 kts | 69° |
| 2026-05-06 15:33 | 74.64402 | -63.50849 | 39358 ft | 537 kts | 70° |
| 2026-05-06 15:33 | 74.66256 | -63.28466 | 39355 ft | 537 kts | 70° |
| 2026-05-06 15:34 | 74.68459 | -63.01448 | 39354 ft | 537 kts | 70° |
| 2026-05-06 15:34 | 74.70625 | -62.74410 | 39355 ft | 537 kts | 70° |
| 2026-05-06 15:35 | 74.72761 | -62.47271 | 39349 ft | 537 kts | 71° |
| 2026-05-06 15:35 | 74.74865 | -62.20054 | 39345 ft | 537 kts | 71° |
| 2026-05-06 15:36 | 74.76931 | -61.92811 | 39347 ft | 536 kts | 71° |
| 2026-05-06 15:36 | 74.78963 | -61.65511 | 39346 ft | 536 kts | 71° |
| 2026-05-06 15:37 | 74.80950 | -61.38308 | 39345 ft | 536 kts | 71° |
| 2026-05-06 15:37 | 74.82919 | -61.10840 | 39342 ft | 536 kts | 72° |
| 2026-05-06 15:38 | 74.84854 | -60.83308 | 39338 ft | 537 kts | 72° |
| 2026-05-06 15:38 | 74.86756 | -60.55691 | 39338 ft | 537 kts | 72° |
| 2026-05-06 15:39 | 74.88625 | -60.28003 | 39323 ft | 536 kts | 72° |
| 2026-05-06 15:39 | 74.90455 | -60.00327 | 39328 ft | 535 kts | 72° |
| 2026-05-06 15:40 | 74.92251 | -59.72612 | 39329 ft | 535 kts | 73° |
| 2026-05-06 15:40 | 74.94014 | -59.44806 | 39324 ft | 536 kts | 73° |
| 2026-05-06 15:41 | 74.95745 | -59.16915 | 39325 ft | 536 kts | 73° |
| 2026-05-06 15:41 | 74.97408 | -58.88936 | 39324 ft | 536 kts | 75° |
| 2026-05-06 15:42 | 74.98779 | -58.60816 | 39325 ft | 537 kts | 77° |
| 2026-05-06 15:42 | 75.00044 | -58.32392 | 39325 ft | 537 kts | 77° |
| 2026-05-06 15:43 | 75.01292 | -58.03927 | 39325 ft | 537 kts | 77° |
| 2026-05-06 15:43 | 75.02526 | -57.75458 | 39329 ft | 536 kts | 78° |
| 2026-05-06 15:44 | 75.03730 | -57.46986 | 39322 ft | 536 kts | 78° |
| 2026-05-06 15:44 | 75.04892 | -57.18674 | 39328 ft | 536 kts | 78° |
| 2026-05-06 15:45 | 75.06025 | -56.90131 | 39334 ft | 536 kts | 79° |
| 2026-05-06 15:45 | 75.07121 | -56.61556 | 39320 ft | 536 kts | 79° |
| 2026-05-06 15:46 | 75.08181 | -56.32947 | 39336 ft | 535 kts | 79° |
| 2026-05-06 15:46 | 75.09206 | -56.04298 | 39350 ft | 535 kts | 79° |
| 2026-05-06 15:47 | 75.10194 | -55.75645 | 39388 ft | 535 kts | 79° |
| 2026-05-06 15:47 | 75.11147 | -55.46944 | 39353 ft | 535 kts | 80° |
| 2026-05-06 15:48 | 75.12055 | -55.18459 | 39371 ft | 534 kts | 80° |
| 2026-05-06 15:48 | 75.12935 | -54.89755 | 39387 ft | 534 kts | 81° |
| 2026-05-06 15:49 | 75.13780 | -54.60987 | 39376 ft | 534 kts | 81° |
| 2026-05-06 15:49 | 75.14587 | -54.32227 | 39376 ft | 534 kts | 81° |
| 2026-05-06 15:50 | 75.15359 | -54.03443 | 39379 ft | 534 kts | 81° |
| 2026-05-06 15:50 | 75.16095 | -53.74647 | 39380 ft | 534 kts | 81° |
| 2026-05-06 15:51 | 75.16795 | -53.45809 | 39368 ft | 533 kts | 82° |
| 2026-05-06 15:51 | 75.17457 | -53.17026 | 39363 ft | 532 kts | 82° |
| 2026-05-06 15:52 | 75.18083 | -52.88236 | 39362 ft | 532 kts | 82° |
| 2026-05-06 15:52 | 75.18673 | -52.59435 | 39363 ft | 532 kts | 82° |
| 2026-05-06 15:53 | 75.19227 | -52.30631 | 39371 ft | 531 kts | 82° |
| 2026-05-06 15:53 | 75.19741 | -52.02037 | 39367 ft | 531 kts | 83° |
| 2026-05-06 15:54 | 75.20223 | -51.73198 | 39376 ft | 531 kts | 83° |
| 2026-05-06 15:54 | 75.20671 | -51.44306 | 39382 ft | 531 kts | 83° |
| 2026-05-06 15:55 | 75.21081 | -51.15442 | 39386 ft | 531 kts | 84° |
| 2026-05-06 15:55 | 75.21456 | -50.86556 | 39399 ft | 531 kts | 84° |
| 2026-05-06 15:56 | 75.21794 | -50.57690 | 39394 ft | 531 kts | 84° |
| 2026-05-06 15:56 | 75.22095 | -50.28978 | 39406 ft | 530 kts | 84° |
| 2026-05-06 15:57 | 75.22361 | -50.00132 | 39405 ft | 530 kts | 84° |
| 2026-05-06 15:57 | 75.22592 | -49.71221 | 39399 ft | 530 kts | 85° |
| 2026-05-06 15:58 | 75.22787 | -49.42320 | 39416 ft | 531 kts | 85° |
| 2026-05-06 15:58 | 75.22946 | -49.13414 | 39418 ft | 530 kts | 85° |
| 2026-05-06 15:59 | 75.23068 | -48.84540 | 39425 ft | 530 kts | 85° |
| 2026-05-06 15:59 | 75.23155 | -48.55733 | 39428 ft | 528 kts | 86° |
| 2026-05-06 16:00 | 75.23206 | -48.26918 | 39440 ft | 528 kts | 86° |
| 2026-05-06 16:00 | 75.23222 | -47.98296 | 39456 ft | 528 kts | 86° |
| 2026-05-06 16:01 | 75.23202 | -47.69490 | 39455 ft | 528 kts | 86° |
| 2026-05-06 16:01 | 75.23146 | -47.40670 | 39463 ft | 528 kts | 87° |
| 2026-05-06 16:02 | 75.23054 | -47.11865 | 39490 ft | 529 kts | 87° |
| 2026-05-06 16:02 | 75.22927 | -46.83089 | 39467 ft | 528 kts | 87° |
| 2026-05-06 16:03 | 75.22765 | -46.54392 | 39482 ft | 526 kts | 88° |
| 2026-05-06 16:03 | 75.22567 | -46.25706 | 39481 ft | 526 kts | 88° |
| 2026-05-06 16:04 | 75.22336 | -45.97251 | 39481 ft | 526 kts | 88° |
| 2026-05-06 16:04 | 75.22068 | -45.68604 | 39487 ft | 526 kts | 88° |
| 2026-05-06 16:05 | 75.21765 | -45.39954 | 39487 ft | 526 kts | 89° |
| 2026-05-06 16:05 | 75.21425 | -45.11294 | 39487 ft | 527 kts | 89° |
| 2026-05-06 16:06 | 75.21051 | -44.82657 | 39491 ft | 525 kts | 89° |
| 2026-05-06 16:06 | 75.20642 | -44.54173 | 39490 ft | 523 kts | 89° |
| 2026-05-06 16:07 | 75.20204 | -44.25920 | 39488 ft | 523 kts | 90° |
| 2026-05-06 16:07 | 75.19728 | -43.97502 | 39484 ft | 523 kts | 90° |
| 2026-05-06 16:08 | 75.19216 | -43.69085 | 39484 ft | 524 kts | 90° |
| 2026-05-06 16:08 | 75.18670 | -43.40717 | 39487 ft | 524 kts | 91° |
| 2026-05-06 16:09 | 75.18089 | -43.12327 | 39487 ft | 524 kts | 91° |
| 2026-05-06 16:09 | 75.17472 | -42.83978 | 39516 ft | 523 kts | 91° |
| 2026-05-06 16:10 | 75.16828 | -42.55951 | 39494 ft | 521 kts | 91° |
| 2026-05-06 16:10 | 75.16148 | -42.27819 | 39482 ft | 520 kts | 91° |
| 2026-05-06 16:11 | 75.15434 | -41.99739 | 39484 ft | 520 kts | 92° |
| 2026-05-06 16:11 | 75.14686 | -41.71658 | 39487 ft | 521 kts | 92° |
| 2026-05-06 16:12 | 75.13903 | -41.43617 | 39484 ft | 521 kts | 92° |
| 2026-05-06 16:12 | 75.13086 | -41.15587 | 39487 ft | 521 kts | 93° |
| 2026-05-06 16:13 | 75.12234 | -40.87584 | 39488 ft | 519 kts | 93° |
| 2026-05-06 16:13 | 75.11352 | -40.59696 | 39489 ft | 518 kts | 93° |
| 2026-05-06 16:14 | 75.10444 | -40.32087 | 39484 ft | 517 kts | 94° |
| 2026-05-06 16:14 | 75.09499 | -40.04383 | 39482 ft | 517 kts | 94° |
| 2026-05-06 16:15 | 75.08521 | -39.76727 | 39483 ft | 517 kts | 94° |
| 2026-05-06 16:15 | 75.07509 | -39.49103 | 39491 ft | 517 kts | 94° |
| 2026-05-06 16:16 | 75.06465 | -39.21507 | 39488 ft | 517 kts | 95° |
| 2026-05-06 16:16 | 75.05386 | -38.93936 | 39494 ft | 517 kts | 95° |
| 2026-05-06 16:17 | 75.04275 | -38.66413 | 39498 ft | 517 kts | 95° |
| 2026-05-06 16:17 | 75.03129 | -38.38871 | 39504 ft | 517 kts | 96° |
| 2026-05-06 16:18 | 75.01952 | -38.11449 | 39510 ft | 517 kts | 96° |
| 2026-05-06 16:18 | 75.00751 | -37.84231 | 39520 ft | 517 kts | 96° |
| 2026-05-06 16:19 | 74.99511 | -37.56923 | 39519 ft | 517 kts | 96° |
| 2026-05-06 16:19 | 74.98236 | -37.29610 | 39536 ft | 517 kts | 97° |
| 2026-05-06 16:20 | 74.96912 | -37.02423 | 39530 ft | 516 kts | 98° |
| 2026-05-06 16:20 | 74.95304 | -36.75442 | 39534 ft | 517 kts | 101° |
| 2026-05-06 16:21 | 74.93546 | -36.48619 | 39535 ft | 517 kts | 102° |
| 2026-05-06 16:21 | 74.92087 | -36.26341 | 39531 ft | 516 kts | 102° |
| 2026-05-06 16:22 | 74.90341 | -35.99631 | 39533 ft | 516 kts | 102° |
| 2026-05-06 16:22 | 74.88582 | -35.72996 | 39541 ft | 516 kts | 102° |
| 2026-05-06 16:23 | 74.86791 | -35.46396 | 39540 ft | 516 kts | 102° |
| 2026-05-06 16:23 | 74.84969 | -35.19891 | 39528 ft | 515 kts | 102° |
| 2026-05-06 16:24 | 74.83125 | -34.93585 | 39523 ft | 515 kts | 103° |
| 2026-05-06 16:24 | 74.81242 | -34.67219 | 39531 ft | 515 kts | 103° |
| 2026-05-06 16:25 | 74.79327 | -34.40902 | 39535 ft | 515 kts | 103° |
| 2026-05-06 16:25 | 74.77378 | -34.14599 | 39526 ft | 514 kts | 103° |
| 2026-05-06 16:26 | 74.75406 | -33.88480 | 39528 ft | 514 kts | 104° |
| 2026-05-06 16:26 | 74.73417 | -33.62576 | 39530 ft | 513 kts | 104° |
| 2026-05-06 16:27 | 74.71393 | -33.36669 | 39530 ft | 512 kts | 104° |
| 2026-05-06 16:27 | 74.69338 | -33.10829 | 39530 ft | 512 kts | 104° |
| 2026-05-06 16:28 | 74.67253 | -32.85042 | 39532 ft | 512 kts | 104° |
| 2026-05-06 16:28 | 74.65139 | -32.59326 | 39532 ft | 513 kts | 105° |
| 2026-05-06 16:29 | 74.62993 | -32.33654 | 39543 ft | 513 kts | 105° |
| 2026-05-06 16:29 | 74.60818 | -32.08062 | 39541 ft | 512 kts | 105° |
| 2026-05-06 16:30 | 74.58992 | -31.86889 | 39535 ft | 510 kts | 105° |
| 2026-05-06 16:30 | 74.56412 | -31.57451 | 39538 ft | 510 kts | 105° |
| 2026-05-06 16:31 | 74.54166 | -31.32234 | 39525 ft | 510 kts | 106° |
| 2026-05-06 16:31 | 74.51887 | -31.07047 | 39528 ft | 510 kts | 106° |
| 2026-05-06 16:32 | 74.49581 | -30.81943 | 39521 ft | 510 kts | 107° |
| 2026-05-06 16:32 | 74.47262 | -30.57085 | 39512 ft | 510 kts | 107° |
| 2026-05-06 16:33 | 74.44900 | -30.32136 | 39515 ft | 510 kts | 107° |
| 2026-05-06 16:34 | 74.41309 | -29.94884 | 39514 ft | 508 kts | 107° |
| 2026-05-06 16:34 | 74.38887 | -29.70228 | 39498 ft | 508 kts | 107° |
| 2026-05-06 16:35 | 74.36437 | -29.45625 | 39498 ft | 508 kts | 108° |
| 2026-05-06 16:35 | 74.33961 | -29.21118 | 39501 ft | 509 kts | 108° |
| 2026-05-06 16:35 | 74.32725 | -29.09020 | 39612 ft | 509 kts | 108° |
| 2026-05-06 16:36 | 74.31469 | -28.96804 | 39778 ft | 507 kts | 108° |
| 2026-05-06 16:36 | 74.28941 | -28.72461 | 39604 ft | 507 kts | 108° |
| 2026-05-06 16:36 | 74.27665 | -28.60309 | 39500 ft | 508 kts | 108° |
| 2026-05-06 16:37 | 74.26381 | -28.48153 | 39492 ft | 509 kts | 108° |
| 2026-05-06 16:37 | 74.23789 | -28.23877 | 39492 ft | 509 kts | 109° |
| 2026-05-06 16:38 | 74.21172 | -27.99691 | 39483 ft | 509 kts | 109° |
| 2026-05-06 16:38 | 74.18528 | -27.75582 | 39484 ft | 509 kts | 109° |
| 2026-05-06 16:39 | 74.15873 | -27.51694 | 39491 ft | 509 kts | 110° |
| 2026-05-06 16:39 | 74.13180 | -27.27770 | 39496 ft | 509 kts | 110° |
| 2026-05-06 16:40 | 74.10453 | -27.03870 | 39485 ft | 509 kts | 110° |
| 2026-05-06 16:40 | 74.07704 | -26.80078 | 39485 ft | 509 kts | 110° |
| 2026-05-06 16:41 | 74.04926 | -26.56341 | 39469 ft | 509 kts | 110° |
| 2026-05-06 16:41 | 74.02144 | -26.32868 | 39450 ft | 509 kts | 111° |
| 2026-05-06 16:42 | 73.99320 | -26.09333 | 39455 ft | 508 kts | 111° |
| 2026-05-06 16:42 | 73.96472 | -25.85896 | 39453 ft | 508 kts | 111° |
| 2026-05-06 16:43 | 73.93600 | -25.62555 | 39421 ft | 508 kts | 111° |
| 2026-05-06 16:43 | 73.90705 | -25.39306 | 39421 ft | 507 kts | 112° |
| 2026-05-06 16:44 | 73.87788 | -25.16168 | 39406 ft | 507 kts | 112° |
| 2026-05-06 16:44 | 73.84848 | -24.93123 | 39405 ft | 507 kts | 112° |
| 2026-05-06 16:45 | 73.81884 | -24.70172 | 39405 ft | 507 kts | 112° |
| 2026-05-06 16:45 | 73.78894 | -24.47283 | 39404 ft | 507 kts | 112° |
| 2026-05-06 16:46 | 73.75881 | -24.24488 | 39406 ft | 507 kts | 113° |
| 2026-05-06 16:46 | 73.72864 | -24.01932 | 39407 ft | 507 kts | 113° |
| 2026-05-06 16:47 | 73.69804 | -23.79309 | 39411 ft | 507 kts | 113° |
| 2026-05-06 16:47 | 73.66720 | -23.56778 | 39408 ft | 507 kts | 114° |
| 2026-05-06 16:48 | 73.63608 | -23.34291 | 39409 ft | 507 kts | 114° |
| 2026-05-06 16:48 | 73.60471 | -23.11884 | 39412 ft | 507 kts | 114° |
| 2026-05-06 16:49 | 73.57312 | -22.89565 | 39408 ft | 507 kts | 114° |
| 2026-05-06 16:49 | 73.54133 | -22.67362 | 39417 ft | 507 kts | 114° |
| 2026-05-06 16:50 | 73.50927 | -22.45211 | 39421 ft | 507 kts | 115° |
| 2026-05-06 16:50 | 73.47697 | -22.23144 | 39410 ft | 507 kts | 115° |
| 2026-05-06 16:51 | 73.44464 | -22.01286 | 39427 ft | 507 kts | 115° |
| 2026-05-06 16:51 | 73.41183 | -21.79353 | 39428 ft | 507 kts | 115° |
| 2026-05-06 16:52 | 73.37887 | -21.57555 | 39435 ft | 508 kts | 115° |
| 2026-05-06 16:52 | 73.34567 | -21.35828 | 39435 ft | 508 kts | 116° |
| 2026-05-06 16:53 | 73.31217 | -21.14142 | 39435 ft | 508 kts | 116° |
| 2026-05-06 16:53 | 73.27849 | -20.92567 | 39439 ft | 508 kts | 116° |
| 2026-05-06 16:54 | 73.24457 | -20.71068 | 39451 ft | 508 kts | 116° |
| 2026-05-06 16:54 | 73.21044 | -20.49660 | 39441 ft | 508 kts | 116° |
| 2026-05-06 16:55 | 73.17608 | -20.28326 | 39440 ft | 508 kts | 117° |
| 2026-05-06 16:55 | 73.14151 | -20.07087 | 39443 ft | 508 kts | 117° |
| 2026-05-06 16:56 | 73.10670 | -19.85917 | 39442 ft | 508 kts | 117° |
| 2026-05-06 16:56 | 73.07190 | -19.64970 | 39442 ft | 508 kts | 117° |
| 2026-05-06 16:57 | 73.03666 | -19.43969 | 39446 ft | 508 kts | 117° |
| 2026-05-06 16:57 | 73.00120 | -19.23053 | 39442 ft | 508 kts | 118° |
| 2026-05-06 16:58 | 72.96527 | -19.02277 | 39458 ft | 509 kts | 120° |
| 2026-05-06 16:58 | 72.92533 | -18.82335 | 39441 ft | 510 kts | 123° |
| 2026-05-06 16:59 | 72.88362 | -18.62837 | 39441 ft | 510 kts | 124° |
| 2026-05-06 16:59 | 72.84179 | -18.43325 | 39441 ft | 510 kts | 123° |
| 2026-05-06 17:00 | 72.80021 | -18.23864 | 39441 ft | 510 kts | 123° |
| 2026-05-06 17:00 | 72.75885 | -18.04590 | 39441 ft | 510 kts | 124° |
| 2026-05-06 17:01 | 72.71703 | -17.85271 | 39431 ft | 510 kts | 124° |
| 2026-05-06 17:01 | 72.67505 | -17.66066 | 39430 ft | 510 kts | 124° |
| 2026-05-06 17:02 | 72.63288 | -17.46953 | 39428 ft | 510 kts | 124° |
| 2026-05-06 17:02 | 72.59049 | -17.27912 | 39433 ft | 510 kts | 124° |
| 2026-05-06 17:03 | 72.54795 | -17.08975 | 39424 ft | 510 kts | 125° |
| 2026-05-06 17:03 | 72.50516 | -16.90095 | 39415 ft | 510 kts | 125° |
| 2026-05-06 17:04 | 72.46250 | -16.71436 | 39418 ft | 510 kts | 125° |
| 2026-05-06 17:04 | 72.41941 | -16.52759 | 39409 ft | 510 kts | 125° |
| 2026-05-06 17:05 | 72.37618 | -16.34182 | 39406 ft | 510 kts | 126° |
| 2026-05-06 17:05 | 72.33273 | -16.15677 | 39403 ft | 510 kts | 126° |
| 2026-05-06 17:06 | 72.28911 | -15.97253 | 39391 ft | 510 kts | 126° |
| 2026-05-06 17:06 | 72.24535 | -15.78938 | 39392 ft | 510 kts | 126° |
| 2026-05-06 17:07 | 72.20145 | -15.60719 | 39396 ft | 510 kts | 126° |
| 2026-05-06 17:07 | 72.15736 | -15.42578 | 39387 ft | 510 kts | 127° |
| 2026-05-06 17:08 | 72.11303 | -15.24496 | 39381 ft | 510 kts | 127° |
| 2026-05-06 17:08 | 72.06887 | -15.06633 | 39381 ft | 510 kts | 127° |
| 2026-05-06 17:09 | 72.02426 | -14.88739 | 39384 ft | 510 kts | 127° |
| 2026-05-06 17:09 | 71.97944 | -14.70918 | 39371 ft | 510 kts | 127° |
| 2026-05-06 17:10 | 71.94202 | -14.56149 | 39368 ft | 510 kts | 127° |
| 2026-05-06 17:10 | 71.89691 | -14.38484 | 39368 ft | 510 kts | 128° |
| 2026-05-06 17:11 | 71.85167 | -14.20917 | 39363 ft | 510 kts | 128° |
| 2026-05-06 17:11 | 71.80624 | -14.03421 | 39360 ft | 510 kts | 128° |
| 2026-05-06 17:12 | 71.76065 | -13.86008 | 39352 ft | 511 kts | 128° |
| 2026-05-06 17:12 | 71.71515 | -13.68774 | 39348 ft | 511 kts | 128° |
| 2026-05-06 17:13 | 71.66919 | -13.51505 | 39345 ft | 511 kts | 128° |